sensor_id;sensor_type;location;lat;lon;timestamp;pressure;altitude;pressure_sealevel;temperature;humidity
9423;BME280;4750;49.506;10.400;2022-11-04T00:00:36;96926.66;;;10.24;89.43
9423;BME280;4750;49.506;10.400;2022-11-04T00:03:20;96879.88;;;9.91;89.04
9423;BME280;4750;49.506;10.400;2022-11-04T00:06:05;96940.00;;;10.33;89.04
9423;BME280;4750;49.506;10.400;2022-11-04T00:08:54;96930.63;;;10.21;89.08
9423;BME280;4750;49.506;10.400;2022-11-04T00:11:39;96926.72;;;10.16;89.29
9423;BME280;4750;49.506;10.400;2022-11-04T00:14:42;96914.53;;;10.04;89.41
9423;BME280;4750;49.506;10.400;2022-11-04T00:17:26;96940.66;;;10.06;89.57
9423;BME280;4750;49.506;10.400;2022-11-04T00:20:10;96917.63;;;9.90;89.99
9423;BME280;4750;49.506;10.400;2022-11-04T00:23:13;96942.22;;;9.99;90.38
9423;BME280;4750;49.506;10.400;2022-11-04T00:26:16;96944.19;;;9.89;90.33
9423;BME280;4750;49.506;10.400;2022-11-04T00:29:18;96900.41;;;9.51;90.98
9423;BME280;4750;49.506;10.400;2022-11-04T00:32:02;96937.72;;;9.79;91.03
9423;BME280;4750;49.506;10.400;2022-11-04T00:35:06;96975.91;;;9.92;91.25
9423;BME280;4750;49.506;10.400;2022-11-04T00:37:50;96920.22;;;9.53;91.51
9423;BME280;4750;49.506;10.400;2022-11-04T00:40:35;96924.63;;;9.64;91.46
9423;BME280;4750;49.506;10.400;2022-11-04T00:43:19;96931.06;;;9.74;91.48
9423;BME280;4750;49.506;10.400;2022-11-04T00:46:03;96933.34;;;9.68;91.62
9423;BME280;4750;49.506;10.400;2022-11-04T00:48:47;96945.59;;;9.55;91.63
9423;BME280;4750;49.506;10.400;2022-11-04T00:51:31;96973.94;;;9.59;91.63
9423;BME280;4750;49.506;10.400;2022-11-04T00:54:16;97002.19;;;9.79;91.51
9423;BME280;4750;49.506;10.400;2022-11-04T00:57:00;96971.03;;;9.50;92.03
9423;BME280;4750;49.506;10.400;2022-11-04T00:59:44;96972.97;;;9.64;91.84
9423;BME280;4750;49.506;10.400;2022-11-04T01:02:28;96992.75;;;9.67;91.75
9423;BME280;4750;49.506;10.400;2022-11-04T01:05:12;96983.09;;;9.60;91.86
9423;BME280;4750;49.506;10.400;2022-11-04T01:07:56;96986.72;;;9.53;91.81
9423;BME280;4750;49.506;10.400;2022-11-04T01:10:40;96964.41;;;9.37;91.74
9423;BME280;4750;49.506;10.400;2022-11-04T01:13:27;96972.22;;;9.39;91.49
9423;BME280;4750;49.506;10.400;2022-11-04T01:16:11;96986.72;;;9.53;91.19
9423;BME280;4750;49.506;10.400;2022-11-04T01:18:57;96905.69;;;8.96;90.83
9423;BME280;4750;49.506;10.400;2022-11-04T01:21:41;96930.59;;;9.10;91.22
9423;BME280;4750;49.506;10.400;2022-11-04T01:24:25;96954.94;;;9.25;90.76
9423;BME280;4750;49.506;10.400;2022-11-04T01:27:09;96968.09;;;9.40;90.59
9423;BME280;4750;49.506;10.400;2022-11-04T01:29:53;96918.38;;;8.98;90.30
9423;BME280;4750;49.506;10.400;2022-11-04T01:32:37;96967.59;;;9.34;90.17
9423;BME280;4750;49.506;10.400;2022-11-04T01:35:21;96957.41;;;9.21;90.00
9423;BME280;4750;49.506;10.400;2022-11-04T01:38:05;96970.97;;;9.32;89.83
9423;BME280;4750;49.506;10.400;2022-11-04T01:40:49;96920.81;;;8.93;89.78
9423;BME280;4750;49.506;10.400;2022-11-04T01:46:45;96976.00;;;9.34;89.63
9423;BME280;4750;49.506;10.400;2022-11-04T01:49:34;96985.13;;;9.34;89.46
9423;BME280;4750;49.506;10.400;2022-11-04T01:52:51;96980.66;;;9.31;89.29
9423;BME280;4750;49.506;10.400;2022-11-04T01:55:49;96955.19;;;9.19;89.13
9423;BME280;4750;49.506;10.400;2022-11-04T01:58:34;96989.59;;;9.37;88.97
9423;BME280;4750;49.506;10.400;2022-11-04T02:01:18;97003.19;;;9.41;88.99
9423;BME280;4750;49.506;10.400;2022-11-04T02:04:02;96974.34;;;9.30;88.96
9423;BME280;4750;49.506;10.400;2022-11-04T02:07:08;97016.94;;;9.54;88.70
9423;BME280;4750;49.506;10.400;2022-11-04T02:09:53;96969.75;;;9.18;88.75
9423;BME280;4750;49.506;10.400;2022-11-04T02:12:38;96986.81;;;9.37;88.81
9423;BME280;4750;49.506;10.400;2022-11-04T02:25:02;97026.44;;;9.59;88.84
9423;BME280;4750;49.506;10.400;2022-11-04T02:31:14;97019.78;;;9.46;88.75
9423;BME280;4750;49.506;10.400;2022-11-04T02:34:15;97030.72;;;9.60;88.77
9423;BME280;4750;49.506;10.400;2022-11-04T02:37:11;96976.78;;;9.26;88.49
9423;BME280;4750;49.506;10.400;2022-11-04T02:40:17;97033.69;;;9.62;88.48
9423;BME280;4750;49.506;10.400;2022-11-04T02:46:13;97032.19;;;9.61;88.39
9423;BME280;4750;49.506;10.400;2022-11-04T02:49:05;97028.94;;;9.47;88.20
9423;BME280;4750;49.506;10.400;2022-11-04T02:52:03;97021.16;;;9.38;88.32
9423;BME280;4750;49.506;10.400;2022-11-04T02:54:53;97041.38;;;9.61;88.09
9423;BME280;4750;49.506;10.400;2022-11-04T02:57:41;97012.16;;;9.47;87.91
9423;BME280;4750;49.506;10.400;2022-11-04T03:00:28;97001.91;;;9.42;87.93
9423;BME280;4750;49.506;10.400;2022-11-04T03:03:16;97031.31;;;9.58;87.99
9423;BME280;4750;49.506;10.400;2022-11-04T03:06:03;97045.63;;;9.62;87.81
9423;BME280;4750;49.506;10.400;2022-11-04T03:08:51;97054.22;;;9.64;87.76
9423;BME280;4750;49.506;10.400;2022-11-04T03:11:40;97046.44;;;9.55;87.53
9423;BME280;4750;49.506;10.400;2022-11-04T03:14:29;97058.34;;;9.63;87.47
9423;BME280;4750;49.506;10.400;2022-11-04T03:17:21;97055.19;;;9.59;87.31
9423;BME280;4750;49.506;10.400;2022-11-04T03:20:13;97051.25;;;9.62;87.33
9423;BME280;4750;49.506;10.400;2022-11-04T03:23:02;96948.59;;;8.91;86.97
9423;BME280;4750;49.506;10.400;2022-11-04T03:25:49;97040.84;;;9.55;86.90
9423;BME280;4750;49.506;10.400;2022-11-04T03:31:36;97035.84;;;9.46;86.51
9423;BME280;4750;49.506;10.400;2022-11-04T03:34:24;97033.66;;;9.37;86.65
9423;BME280;4750;49.506;10.400;2022-11-04T03:37:08;97028.13;;;9.29;86.90
9423;BME280;4750;49.506;10.400;2022-11-04T03:39:53;97038.75;;;9.30;86.80
9423;BME280;4750;49.506;10.400;2022-11-04T03:42:43;97001.34;;;9.03;86.85
9423;BME280;4750;49.506;10.400;2022-11-04T03:45:28;97051.59;;;9.34;86.93
9423;BME280;4750;49.506;10.400;2022-11-04T03:48:12;97025.78;;;9.10;86.82
9423;BME280;4750;49.506;10.400;2022-11-04T03:50:57;97058.88;;;9.37;87.26
9423;BME280;4750;49.506;10.400;2022-11-04T03:53:41;97003.81;;;8.99;86.63
9423;BME280;4750;49.506;10.400;2022-11-04T03:56:40;97043.84;;;9.17;86.51
9423;BME280;4750;49.506;10.400;2022-11-04T03:59:55;97047.19;;;9.23;86.50
9423;BME280;4750;49.506;10.400;2022-11-04T04:02:58;97034.78;;;9.01;86.42
9423;BME280;4750;49.506;10.400;2022-11-04T04:05:55;97066.59;;;9.21;86.50
9423;BME280;4750;49.506;10.400;2022-11-04T04:08:50;97058.94;;;9.21;86.66
9423;BME280;4750;49.506;10.400;2022-11-04T04:11:43;97068.25;;;9.24;86.66
9423;BME280;4750;49.506;10.400;2022-11-04T04:14:40;97054.53;;;9.03;86.66
9423;BME280;4750;49.506;10.400;2022-11-04T04:17:31;97038.56;;;8.88;86.52
9423;BME280;4750;49.506;10.400;2022-11-04T04:20:19;97037.25;;;8.89;86.61
9423;BME280;4750;49.506;10.400;2022-11-04T04:23:11;97071.91;;;9.01;86.67
9423;BME280;4750;49.506;10.400;2022-11-04T04:26:18;97065.56;;;9.01;86.45
9423;BME280;4750;49.506;10.400;2022-11-04T04:29:22;97049.56;;;8.93;86.69
9423;BME280;4750;49.506;10.400;2022-11-04T04:32:08;97031.91;;;8.68;86.85
9423;BME280;4750;49.506;10.400;2022-11-04T04:34:52;97069.09;;;9.01;87.07
9423;BME280;4750;49.506;10.400;2022-11-04T04:38:03;97074.31;;;9.05;87.15
9423;BME280;4750;49.506;10.400;2022-11-04T04:41:30;97073.97;;;8.93;87.06
9423;BME280;4750;49.506;10.400;2022-11-04T04:44:33;97046.44;;;8.74;87.14
9423;BME280;4750;49.506;10.400;2022-11-04T04:47:44;97031.19;;;8.59;87.09
9423;BME280;4750;49.506;10.400;2022-11-04T04:50:33;97070.28;;;8.90;86.99
9423;BME280;4750;49.506;10.400;2022-11-04T04:53:18;97013.47;;;8.57;87.11
9423;BME280;4750;49.506;10.400;2022-11-04T04:56:02;97084.97;;;9.06;87.10
9423;BME280;4750;49.506;10.400;2022-11-04T04:58:46;97070.63;;;8.94;86.95
9423;BME280;4750;49.506;10.400;2022-11-04T05:01:30;97059.84;;;8.83;86.88
9423;BME280;4750;49.506;10.400;2022-11-04T05:04:14;97063.59;;;8.78;87.06
9423;BME280;4750;49.506;10.400;2022-11-04T05:06:58;97079.16;;;9.04;86.84
9423;BME280;4750;49.506;10.400;2022-11-04T05:09:42;97019.25;;;8.59;86.73
9423;BME280;4750;49.506;10.400;2022-11-04T05:12:26;97038.06;;;8.74;86.82
9423;BME280;4750;49.506;10.400;2022-11-04T05:15:31;97000.44;;;8.52;86.55
9423;BME280;4750;49.506;10.400;2022-11-04T05:18:15;97026.31;;;8.68;86.59
9423;BME280;4750;49.506;10.400;2022-11-04T05:21:03;97037.13;;;8.71;86.70
9423;BME280;4750;49.506;10.400;2022-11-04T05:23:47;97055.00;;;8.76;86.49
9423;BME280;4750;49.506;10.400;2022-11-04T05:26:31;97050.53;;;8.73;86.34
9423;BME280;4750;49.506;10.400;2022-11-04T05:29:15;97058.72;;;8.78;86.90
9423;BME280;4750;49.506;10.400;2022-11-04T05:31:59;97023.34;;;8.66;86.80
9423;BME280;4750;49.506;10.400;2022-11-04T05:34:43;97045.72;;;8.73;86.84
9423;BME280;4750;49.506;10.400;2022-11-04T05:37:27;97039.38;;;8.57;86.88
9423;BME280;4750;49.506;10.400;2022-11-04T05:40:11;97068.09;;;8.73;86.96
9423;BME280;4750;49.506;10.400;2022-11-04T05:42:57;97068.81;;;8.74;86.61
9423;BME280;4750;49.506;10.400;2022-11-04T05:45:41;97071.81;;;8.68;86.59
9423;BME280;4750;49.506;10.400;2022-11-04T05:48:26;97039.59;;;8.44;86.83
9423;BME280;4750;49.506;10.400;2022-11-04T05:51:15;97062.53;;;8.58;86.78
9423;BME280;4750;49.506;10.400;2022-11-04T05:54:00;97079.47;;;8.68;86.45
9423;BME280;4750;49.506;10.400;2022-11-04T05:56:44;97047.25;;;8.43;86.27
9423;BME280;4750;49.506;10.400;2022-11-04T05:59:28;97021.53;;;8.30;86.58
9423;BME280;4750;49.506;10.400;2022-11-04T06:02:12;97031.97;;;8.44;86.43
9423;BME280;4750;49.506;10.400;2022-11-04T06:04:56;97008.50;;;8.24;86.37
9423;BME280;4750;49.506;10.400;2022-11-04T06:07:40;97006.28;;;8.15;86.47
9423;BME280;4750;49.506;10.400;2022-11-04T06:10:24;97021.38;;;8.20;86.77
9423;BME280;4750;49.506;10.400;2022-11-04T06:13:08;97048.00;;;8.28;87.08
9423;BME280;4750;49.506;10.400;2022-11-04T06:15:52;97018.75;;;8.14;86.80
9423;BME280;4750;49.506;10.400;2022-11-04T06:18:36;97010.00;;;8.10;87.02
9423;BME280;4750;49.506;10.400;2022-11-04T06:21:26;97019.69;;;8.09;87.14
9423;BME280;4750;49.506;10.400;2022-11-04T06:24:10;97070.00;;;8.24;87.19
9423;BME280;4750;49.506;10.400;2022-11-04T06:26:55;97100.38;;;8.13;87.20
9423;BME280;4750;49.506;10.400;2022-11-04T06:29:39;97104.84;;;8.08;87.65
9423;BME280;4750;49.506;10.400;2022-11-04T06:32:23;97105.41;;;7.99;87.81
9423;BME280;4750;49.506;10.400;2022-11-04T06:35:07;97119.94;;;8.05;88.05
9423;BME280;4750;49.506;10.400;2022-11-04T06:37:53;97127.19;;;8.08;88.02
9423;BME280;4750;49.506;10.400;2022-11-04T06:40:43;97119.56;;;8.01;88.22
9423;BME280;4750;49.506;10.400;2022-11-04T06:43:27;97102.78;;;7.85;87.88
9423;BME280;4750;49.506;10.400;2022-11-04T06:49:23;97141.91;;;7.93;88.16
9423;BME280;4750;49.506;10.400;2022-11-04T06:52:07;97152.91;;;7.99;88.54
9423;BME280;4750;49.506;10.400;2022-11-04T06:54:51;97121.38;;;7.75;88.32
9423;BME280;4750;49.506;10.400;2022-11-04T06:57:36;97146.38;;;7.96;88.35
9423;BME280;4750;49.506;10.400;2022-11-04T07:00:20;97149.91;;;7.97;88.07
9423;BME280;4750;49.506;10.400;2022-11-04T07:03:05;97147.13;;;7.97;88.55
9423;BME280;4750;49.506;10.400;2022-11-04T07:05:50;97110.38;;;7.62;88.48
9423;BME280;4750;49.506;10.400;2022-11-04T07:08:34;97048.25;;;7.17;88.38
9423;BME280;4750;49.506;10.400;2022-11-04T07:11:20;97155.69;;;7.83;88.47
9423;BME280;4750;49.506;10.400;2022-11-04T07:14:04;97160.69;;;7.77;88.70
9423;BME280;4750;49.506;10.400;2022-11-04T07:16:49;97108.47;;;7.49;88.76
9423;BME280;4750;49.506;10.400;2022-11-04T07:19:34;97136.28;;;7.70;88.76
9423;BME280;4750;49.506;10.400;2022-11-04T07:22:18;97135.34;;;7.75;88.86
9423;BME280;4750;49.506;10.400;2022-11-04T07:25:02;97131.28;;;7.91;88.71
9423;BME280;4750;49.506;10.400;2022-11-04T07:27:46;97065.69;;;7.62;88.60
9423;BME280;4750;49.506;10.400;2022-11-04T07:30:31;97085.28;;;7.92;88.32
9423;BME280;4750;49.506;10.400;2022-11-04T07:33:15;97012.56;;;7.38;88.11
9423;BME280;4750;49.506;10.400;2022-11-04T07:36:09;97093.47;;;8.06;88.14
9423;BME280;4750;49.506;10.400;2022-11-04T07:38:53;97099.81;;;7.99;88.27
9423;BME280;4750;49.506;10.400;2022-11-04T07:41:38;97111.16;;;8.01;88.34
9423;BME280;4750;49.506;10.400;2022-11-04T07:44:22;97102.59;;;7.99;88.22
9423;BME280;4750;49.506;10.400;2022-11-04T07:47:06;97130.38;;;8.12;88.08
9423;BME280;4750;49.506;10.400;2022-11-04T07:49:50;97100.16;;;7.95;88.22
9423;BME280;4750;49.506;10.400;2022-11-04T07:52:40;97125.91;;;8.24;88.43
9423;BME280;4750;49.506;10.400;2022-11-04T07:55:25;97116.97;;;8.18;88.15
9423;BME280;4750;49.506;10.400;2022-11-04T07:58:09;97098.69;;;8.17;87.68
9423;BME280;4750;49.506;10.400;2022-11-04T08:01:02;97074.84;;;8.16;87.67
9423;BME280;4750;49.506;10.400;2022-11-04T08:03:46;97108.97;;;8.46;87.54
9423;BME280;4750;49.506;10.400;2022-11-04T08:06:30;97111.19;;;8.47;87.41
9423;BME280;4750;49.506;10.400;2022-11-04T08:09:14;97128.19;;;8.49;86.88
9423;BME280;4750;49.506;10.400;2022-11-04T08:11:59;97117.69;;;8.42;87.05
9423;BME280;4750;49.506;10.400;2022-11-04T08:14:43;97136.38;;;8.63;86.78
9423;BME280;4750;49.506;10.400;2022-11-04T08:17:27;97135.81;;;8.56;86.63
9423;BME280;4750;49.506;10.400;2022-11-04T08:20:11;97132.09;;;8.54;86.61
9423;BME280;4750;49.506;10.400;2022-11-04T08:22:55;97140.66;;;8.56;86.72
9423;BME280;4750;49.506;10.400;2022-11-04T08:25:39;97138.59;;;8.64;86.79
9423;BME280;4750;49.506;10.400;2022-11-04T08:28:23;97161.34;;;8.68;86.89
9423;BME280;4750;49.506;10.400;2022-11-04T08:34:00;97180.75;;;8.66;86.60
9423;BME280;4750;49.506;10.400;2022-11-04T08:36:44;97168.44;;;8.69;86.93
9423;BME280;4750;49.506;10.400;2022-11-04T08:39:28;97127.63;;;8.51;87.05
9423;BME280;4750;49.506;10.400;2022-11-04T08:42:12;97152.59;;;8.56;86.77
9423;BME280;4750;49.506;10.400;2022-11-04T08:44:56;97184.09;;;8.80;86.54
9423;BME280;4750;49.506;10.400;2022-11-04T08:47:40;97200.88;;;9.03;86.55
9423;BME280;4750;49.506;10.400;2022-11-04T08:50:24;97199.00;;;9.06;86.22
9423;BME280;4750;49.506;10.400;2022-11-04T08:53:10;97175.88;;;8.74;85.74
9423;BME280;4750;49.506;10.400;2022-11-04T08:55:54;97162.09;;;8.69;86.06
9423;BME280;4750;49.506;10.400;2022-11-04T08:58:39;97162.47;;;8.81;86.09
9423;BME280;4750;49.506;10.400;2022-11-04T09:01:23;97189.28;;;9.07;85.86
9423;BME280;4750;49.506;10.400;2022-11-04T09:04:09;97167.84;;;9.02;85.65
9423;BME280;4750;49.506;10.400;2022-11-04T09:06:54;97176.22;;;9.17;85.52
9423;BME280;4750;49.506;10.400;2022-11-04T09:09:39;97199.31;;;9.25;85.16
9423;BME280;4750;49.506;10.400;2022-11-04T09:12:23;97165.97;;;8.96;84.97
9423;BME280;4750;49.506;10.400;2022-11-04T09:15:08;97190.16;;;9.25;85.04
9423;BME280;4750;49.506;10.400;2022-11-04T09:17:52;97195.78;;;9.25;84.50
9423;BME280;4750;49.506;10.400;2022-11-04T09:20:36;97168.91;;;9.22;84.71
9423;BME280;4750;49.506;10.400;2022-11-04T09:23:24;97191.44;;;9.39;84.52
9423;BME280;4750;49.506;10.400;2022-11-04T09:26:12;97200.16;;;9.51;84.29
9423;BME280;4750;49.506;10.400;2022-11-04T09:28:57;97187.69;;;9.37;84.22
9423;BME280;4750;49.506;10.400;2022-11-04T09:31:41;97181.94;;;9.35;83.63
9423;BME280;4750;49.506;10.400;2022-11-04T09:34:26;97183.44;;;9.36;83.61
9423;BME280;4750;49.506;10.400;2022-11-04T09:37:10;97184.31;;;9.46;83.68
9423;BME280;4750;49.506;10.400;2022-11-04T09:39:54;97173.22;;;9.63;83.33
9423;BME280;4750;49.506;10.400;2022-11-04T09:43:22;97196.09;;;9.85;82.83
9423;BME280;4750;49.506;10.400;2022-11-04T09:46:01;97172.97;;;9.77;82.31
9423;BME280;4750;49.506;10.400;2022-11-04T09:48:53;97189.94;;;10.20;81.95
9423;BME280;4750;49.506;10.400;2022-11-04T09:51:39;97190.19;;;10.06;81.34
9423;BME280;4750;49.506;10.400;2022-11-04T09:57:34;97171.72;;;10.28;80.76
9423;BME280;4750;49.506;10.400;2022-11-04T10:00:18;97151.06;;;10.16;80.17
9423;BME280;4750;49.506;10.400;2022-11-04T10:03:17;97146.13;;;9.99;79.63
9423;BME280;4750;49.506;10.400;2022-11-04T10:12:48;97085.22;;;9.67;79.32
9423;BME280;4750;49.506;10.400;2022-11-04T10:15:58;97127.41;;;10.02;79.25
9423;BME280;4750;49.506;10.400;2022-11-04T10:21:55;97149.44;;;10.30;78.66
9423;BME280;4750;49.506;10.400;2022-11-04T10:25:15;97124.75;;;10.37;78.79
9423;BME280;4750;49.506;10.400;2022-11-04T10:28:04;97128.16;;;10.35;78.04
9423;BME280;4750;49.506;10.400;2022-11-04T10:30:50;97130.38;;;10.37;77.68
9423;BME280;4750;49.506;10.400;2022-11-04T10:33:38;97139.13;;;10.41;77.74
9423;BME280;4750;49.506;10.400;2022-11-04T10:36:25;97127.94;;;10.33;77.58
9423;BME280;4750;49.506;10.400;2022-11-04T10:39:15;97113.00;;;10.30;77.45
9423;BME280;4750;49.506;10.400;2022-11-04T10:42:04;97135.38;;;10.63;77.79
9423;BME280;4750;49.506;10.400;2022-11-04T10:44:49;97126.97;;;10.63;77.82
9423;BME280;4750;49.506;10.400;2022-11-04T10:47:45;97124.91;;;10.64;77.32
9423;BME280;4750;49.506;10.400;2022-11-04T10:51:00;97114.88;;;10.53;77.29
9423;BME280;4750;49.506;10.400;2022-11-04T10:53:44;97137.88;;;10.77;77.15
9423;BME280;4750;49.506;10.400;2022-11-04T10:56:38;97095.78;;;10.34;77.06
9423;BME280;4750;49.506;10.400;2022-11-04T10:59:29;97120.09;;;10.57;77.21
9423;BME280;4750;49.506;10.400;2022-11-04T11:02:14;97143.66;;;10.79;77.27
9423;BME280;4750;49.506;10.400;2022-11-04T11:07:59;97122.84;;;10.82;77.27
9423;BME280;4750;49.506;10.400;2022-11-04T11:10:49;97126.97;;;10.63;76.79
9423;BME280;4750;49.506;10.400;2022-11-04T11:13:36;97133.28;;;10.89;76.67
9423;BME280;4750;49.506;10.400;2022-11-04T11:16:25;97113.38;;;10.95;76.29
9423;BME280;4750;49.506;10.400;2022-11-04T11:19:23;97099.72;;;10.74;75.96
9423;BME280;4750;49.506;10.400;2022-11-04T11:25:30;97129.47;;;10.94;75.75
9423;BME280;4750;49.506;10.400;2022-11-04T11:28:23;97119.97;;;11.25;75.63
9423;BME280;4750;49.506;10.400;2022-11-04T11:31:12;97117.81;;;11.33;74.79
9423;BME280;4750;49.506;10.400;2022-11-04T11:34:14;97113.75;;;11.26;74.26
9423;BME280;4750;49.506;10.400;2022-11-04T11:37:00;97110.66;;;11.05;73.81
9423;BME280;4750;49.506;10.400;2022-11-04T11:39:48;97058.78;;;10.88;74.17
9423;BME280;4750;49.506;10.400;2022-11-04T11:42:32;97071.75;;;11.01;73.91
9423;BME280;4750;49.506;10.400;2022-11-04T11:45:19;97071.81;;;11.11;74.26
9423;BME280;4750;49.506;10.400;2022-11-04T11:48:37;97067.00;;;11.21;74.09
9423;BME280;4750;49.506;10.400;2022-11-04T11:51:30;97084.44;;;11.37;74.06
9423;BME280;4750;49.506;10.400;2022-11-04T11:54:19;97047.13;;;11.09;73.73
9423;BME280;4750;49.506;10.400;2022-11-04T11:57:20;97061.19;;;11.36;73.94
9423;BME280;4750;49.506;10.400;2022-11-04T12:00:14;97071.28;;;11.67;73.59
9423;BME280;4750;49.506;10.400;2022-11-04T12:03:14;97072.50;;;11.46;72.93
9423;BME280;4750;49.506;10.400;2022-11-04T12:09:18;97056.66;;;11.41;72.55
9423;BME280;4750;49.506;10.400;2022-11-04T12:15:16;97085.81;;;11.46;72.63
9423;BME280;4750;49.506;10.400;2022-11-04T12:18:41;97020.41;;;11.18;72.66
9423;BME280;4750;49.506;10.400;2022-11-04T12:21:32;97096.31;;;11.73;71.74
9423;BME280;4750;49.506;10.400;2022-11-04T12:24:31;97098.09;;;11.95;71.36
9423;BME280;4750;49.506;10.400;2022-11-04T12:30:15;97105.75;;;11.67;71.55
9423;BME280;4750;49.506;10.400;2022-11-04T12:48:08;97133.00;;;11.75;69.60
9423;BME280;4750;49.506;10.400;2022-11-04T13:00:25;97119.75;;;11.58;67.57
9423;BME280;4750;49.506;10.400;2022-11-04T13:04:09;97105.91;;;11.69;68.12
9423;BME280;4750;49.506;10.400;2022-11-04T13:06:28;97127.81;;;11.71;68.55
9423;BME280;4750;49.506;10.400;2022-11-04T13:09:31;97139.34;;;11.65;68.18
9423;BME280;4750;49.506;10.400;2022-11-04T13:12:40;97131.47;;;11.64;68.90
9423;BME280;4750;49.506;10.400;2022-11-04T13:15:27;97114.75;;;11.39;69.05
9423;BME280;4750;49.506;10.400;2022-11-04T13:18:17;97135.22;;;11.76;69.24
9423;BME280;4750;49.506;10.400;2022-11-04T13:21:21;97109.66;;;11.54;68.71
9423;BME280;4750;49.506;10.400;2022-11-04T13:24:22;97077.91;;;11.34;68.31
9423;BME280;4750;49.506;10.400;2022-11-04T13:27:22;97133.28;;;11.69;68.19
9423;BME280;4750;49.506;10.400;2022-11-04T13:39:28;97070.13;;;11.43;69.01
9423;BME280;4750;49.506;10.400;2022-11-04T13:45:30;97121.66;;;11.55;68.52
9423;BME280;4750;49.506;10.400;2022-11-04T13:48:17;97106.78;;;11.45;68.33
9423;BME280;4750;49.506;10.400;2022-11-04T13:51:09;97105.16;;;11.42;68.43
9423;BME280;4750;49.506;10.400;2022-11-04T13:53:56;97139.59;;;11.60;69.05
9423;BME280;4750;49.506;10.400;2022-11-04T13:56:41;97115.06;;;11.43;68.93
9423;BME280;4750;49.506;10.400;2022-11-04T13:59:29;97150.25;;;11.61;69.55
9423;BME280;4750;49.506;10.400;2022-11-04T14:08:13;97143.44;;;10.84;70.75
9423;BME280;4750;49.506;10.400;2022-11-04T14:11:02;97163.56;;;10.91;71.65
9423;BME280;4750;49.506;10.400;2022-11-04T14:13:59;97170.94;;;10.86;72.54
9423;BME280;4750;49.506;10.400;2022-11-04T14:16:44;97156.34;;;10.62;73.50
9423;BME280;4750;49.506;10.400;2022-11-04T14:19:57;97139.88;;;10.41;74.42
9423;BME280;4750;49.506;10.400;2022-11-04T14:28:17;97162.53;;;10.36;76.80
9423;BME280;4750;49.506;10.400;2022-11-04T14:31:07;97179.94;;;10.34;77.54
9423;BME280;4750;49.506;10.400;2022-11-04T14:33:55;97183.69;;;10.29;77.91
9423;BME280;4750;49.506;10.400;2022-11-04T14:36:40;97165.50;;;10.12;78.52
9423;BME280;4750;49.506;10.400;2022-11-04T14:39:55;97186.44;;;10.11;78.98
9423;BME280;4750;49.506;10.400;2022-11-04T14:42:58;97171.25;;;10.14;79.00
9423;BME280;4750;49.506;10.400;2022-11-04T14:45:43;97167.03;;;10.06;79.44
9423;BME280;4750;49.506;10.400;2022-11-04T14:48:27;97196.47;;;10.22;79.42
9423;BME280;4750;49.506;10.400;2022-11-04T14:51:30;97191.47;;;10.13;79.47
9423;BME280;4750;49.506;10.400;2022-11-04T14:54:20;97177.94;;;9.94;79.68
9423;BME280;4750;49.506;10.400;2022-11-04T14:57:19;97193.00;;;10.06;79.82
9423;BME280;4750;49.506;10.400;2022-11-04T15:05:58;97203.91;;;9.94;79.97
9423;BME280;4750;49.506;10.400;2022-11-04T15:08:46;97183.47;;;9.69;80.49
9423;BME280;4750;49.506;10.400;2022-11-04T15:11:38;97215.19;;;9.79;80.66
9423;BME280;4750;49.506;10.400;2022-11-04T15:14:41;97207.41;;;9.70;81.03
9423;BME280;4750;49.506;10.400;2022-11-04T15:17:30;97211.09;;;9.72;81.12
9423;BME280;4750;49.506;10.400;2022-11-04T15:20:23;97214.56;;;9.40;80.97
9423;BME280;4750;49.506;10.400;2022-11-04T15:23:13;97204.38;;;9.19;81.68
9423;BME280;4750;49.506;10.400;2022-11-04T15:25:59;97199.72;;;9.14;81.92
9423;BME280;4750;49.506;10.400;2022-11-04T15:28:45;97212.25;;;9.13;82.08
9423;BME280;4750;49.506;10.400;2022-11-04T15:31:32;97203.47;;;9.01;82.21
9423;BME280;4750;49.506;10.400;2022-11-04T15:34:16;97161.19;;;8.66;82.78
9423;BME280;4750;49.506;10.400;2022-11-04T15:37:02;97220.28;;;9.09;83.14
9423;BME280;4750;49.506;10.400;2022-11-04T15:39:51;97212.06;;;8.95;83.15
9423;BME280;4750;49.506;10.400;2022-11-04T15:42:37;97209.84;;;8.78;83.05
9423;BME280;4750;49.506;10.400;2022-11-04T15:45:38;97196.22;;;8.75;83.42
9423;BME280;4750;49.506;10.400;2022-11-04T15:48:33;97205.00;;;8.79;83.50
9423;BME280;4750;49.506;10.400;2022-11-04T15:51:20;97219.91;;;8.74;83.83
9423;BME280;4750;49.506;10.400;2022-11-04T15:54:33;97219.19;;;8.73;83.72
9423;BME280;4750;49.506;10.400;2022-11-04T15:57:22;97221.41;;;8.67;83.33
9423;BME280;4750;49.506;10.400;2022-11-04T16:03:00;97194.50;;;8.25;84.10
9423;BME280;4750;49.506;10.400;2022-11-04T16:06:02;97215.41;;;8.32;84.39
9423;BME280;4750;49.506;10.400;2022-11-04T16:09:25;97221.72;;;8.33;84.43
9423;BME280;4750;49.506;10.400;2022-11-04T16:12:24;97226.38;;;8.22;84.81
9423;BME280;4750;49.506;10.400;2022-11-04T16:15:49;97153.78;;;7.78;85.54
9423;BME280;4750;49.506;10.400;2022-11-04T16:18:43;97197.25;;;8.02;85.97
9423;BME280;4750;49.506;10.400;2022-11-04T16:21:33;97197.63;;;7.99;85.84
9423;BME280;4750;49.506;10.400;2022-11-04T16:24:26;97214.63;;;8.24;86.55
9423;BME280;4750;49.506;10.400;2022-11-04T16:27:16;97235.91;;;8.42;86.12
9423;BME280;4750;49.506;10.400;2022-11-04T16:30:08;97216.28;;;8.19;86.42
9423;BME280;4750;49.506;10.400;2022-11-04T16:33:08;97238.50;;;8.33;86.14
9423;BME280;4750;49.506;10.400;2022-11-04T16:35:52;97222.81;;;8.14;86.73
9423;BME280;4750;49.506;10.400;2022-11-04T16:38:36;97227.84;;;8.23;87.29
9423;BME280;4750;49.506;10.400;2022-11-04T16:41:21;97205.66;;;8.10;87.20
9423;BME280;4750;49.506;10.400;2022-11-04T16:44:18;97248.56;;;8.36;87.37
9423;BME280;4750;49.506;10.400;2022-11-04T16:47:02;97200.81;;;8.03;87.54
9423;BME280;4750;49.506;10.400;2022-11-04T16:49:46;97265.75;;;8.40;87.61
9423;BME280;4750;49.506;10.400;2022-11-04T16:52:30;97258.84;;;8.41;87.85
9423;BME280;4750;49.506;10.400;2022-11-04T16:55:15;97256.75;;;8.18;87.83
9423;BME280;4750;49.506;10.400;2022-11-04T16:58:01;97272.63;;;8.31;88.07
9423;BME280;4750;49.506;10.400;2022-11-04T17:00:47;97237.91;;;8.11;88.21
9423;BME280;4750;49.506;10.400;2022-11-04T17:03:31;97262.13;;;8.16;88.29
9423;BME280;4750;49.506;10.400;2022-11-04T17:06:16;97254.31;;;8.15;88.31
9423;BME280;4750;49.506;10.400;2022-11-04T17:09:00;97272.03;;;8.17;88.13
9423;BME280;4750;49.506;10.400;2022-11-04T17:11:44;97289.19;;;8.21;88.17
9423;BME280;4750;49.506;10.400;2022-11-04T17:14:28;97261.34;;;8.08;88.55